Oakhurst, Texas
Current Conditions -  °F | °C
As of 3:53 PM on Wednesday 28 Jan 2015 (Local Time) from KUTS Reporting Station
Clear Clear  
Wind Chill: 77°   Ceiling: Unl
Heat Index: 78°   Visibility: 10mi
Dew Point: 41°   Wind: 14mph
Humidity: 28%   Direction: 170°S
Pressure: 30.09"   Gusts: NA
Location:  30.74°N, 95.32°W
Report Text: KUTS 282153Z AUTO 17012KT 10SM CLR 25/05 A3009 RMK AO2 SLP185 T02500050
Loading
Personal Weather Stations






























Interactive Weather Map New forecast layout! Learn more

10-Day Weather Forecast

Advertisements
Track Severe Weather on mobile